Time;durP1;ratioP1;P1;durP2;ratioP2;P2;SDS_P1;SDS_P2;PMS_P1;PMS_P2;Temp;Humidity;BMP_temperature;BMP_pressure;BME280_temperature;BME280_humidity;BME280_pressure;Samples;Min_cycle;Max_cycle;Signal;HPM_P1;HPM_P2
2022/11/23 00:01:27;;;;;;;18.50;9.88;;;;;;;;;;5091127;28;20044;-64
2022/11/23 00:03:54;;;;;;;15.32;9.43;;;;;;;;;;5071829;28;20040;-64
2022/11/23 00:06:21;;;;;;;14.25;9.80;;;;;;;;;;5071360;28;20040;-64
2022/11/23 00:08:47;;;;;;;16.35;10.00;;;;;;;;;;5082047;28;20040;-64
2022/11/23 00:11:14;;;;;;;18.27;9.75;;;;;;;;;;5091381;28;20044;-64
2022/11/23 00:13:40;;;;;;;18.50;10.27;;;;;;;;;;5091436;28;20082;-64
2022/11/23 00:16:07;;;;;;;15.63;9.00;;;;;;;;;;5090789;28;20121;-64
2022/11/23 00:18:33;;;;;;;14.90;10.63;;;;;;;;;;5091372;28;20109;-64
2022/11/23 00:20:59;;;;;;;18.08;10.52;;;;;;;;;;5094672;28;20485;-64
2022/11/23 00:23:25;;;;;;;15.68;9.57;;;;;;;;;;5095047;28;20044;-64
2022/11/23 00:25:51;;;;;;;14.20;9.55;;;;;;;;;;5095340;28;20063;-64
2022/11/23 00:28:17;;;;;;;17.80;10.18;;;;;;;;;;5095474;28;20040;-64
2022/11/23 00:30:48;;;;;;;17.30;9.98;;;;;;;;;;5094922;28;20045;-64
2022/11/23 00:33:14;;;;;;;20.60;9.80;;;;;;;;;;5095445;28;20039;-64
2022/11/23 00:35:40;;;;;;;14.55;9.63;;;;;;;;;;5095288;28;20040;-64
2022/11/23 00:38:06;;;;;;;18.85;9.98;;;;;;;;;;5093439;28;20477;-63
2022/11/23 00:40:32;;;;;;;14.73;9.43;;;;;;;;;;5094702;28;20040;-63
2022/11/23 00:42:58;;;;;;;20.55;10.07;;;;;;;;;;5094818;28;20043;-63
2022/11/23 00:45:24;;;;;;;18.50;10.18;;;;;;;;;;5094832;28;20040;-63
2022/11/23 00:47:50;;;;;;;16.02;10.18;;;;;;;;;;5094724;28;20128;-63
2022/11/23 00:50:16;;;;;;;15.70;9.27;;;;;;;;;;5094902;28;20509;-63
2022/11/23 00:52:42;;;;;;;14.00;9.15;;;;;;;;;;5095015;28;20508;-63
2022/11/23 00:55:09;;;;;;;13.02;9.02;;;;;;;;;;5094088;28;20122;-63
2022/11/23 00:57:35;;;;;;;14.30;9.65;;;;;;;;;;5094895;28;20075;-63
2022/11/23 01:00:01;;;;;;;16.92;9.85;;;;;;;;;;5094289;28;20044;-63
2022/11/23 01:02:27;;;;;;;17.05;9.57;;;;;;;;;;5086373;28;20449;-63
2022/11/23 01:04:53;;;;;;;15.40;10.20;;;;;;;;;;5074115;28;20044;-64
2022/11/23 01:07:19;;;;;;;20.70;10.73;;;;;;;;;;5073965;28;20051;-64
2022/11/23 01:09:45;;;;;;;13.98;9.45;;;;;;;;;;5093274;28;20036;-64
2022/11/23 01:12:11;;;;;;;17.33;9.88;;;;;;;;;;5094577;28;20551;-64
2022/11/23 01:14:37;;;;;;;16.77;9.95;;;;;;;;;;5094271;28;20043;-64
2022/11/23 01:17:03;;;;;;;21.33;10.50;;;;;;;;;;5093781;28;20716;-64
2022/11/23 01:19:29;;;;;;;13.82;9.38;;;;;;;;;;5094094;28;20045;-64
2022/11/23 01:21:55;;;;;;;20.83;10.52;;;;;;;;;;5094358;28;20040;-64
2022/11/23 01:24:22;;;;;;;18.85;9.65;;;;;;;;;;5093898;28;20039;-64
2022/11/23 01:26:52;;;;;;;17.20;9.48;;;;;;;;;;5092582;28;20040;-64
2022/11/23 01:29:18;;;;;;;16.85;10.38;;;;;;;;;;5094332;28;20073;-64
2022/11/23 01:31:44;;;;;;;17.25;10.00;;;;;;;;;;5092504;28;20093;-64
2022/11/23 01:34:11;;;;;;;15.00;9.98;;;;;;;;;;5094238;28;20096;-64
2022/11/23 01:36:37;;;;;;;16.90;10.68;;;;;;;;;;5094152;28;20051;-64
2022/11/23 01:39:04;;;;;;;13.68;9.43;;;;;;;;;;5093623;28;20047;-64
2022/11/23 01:41:35;;;;;;;16.60;9.57;;;;;;;;;;5093923;28;20039;-64
2022/11/23 01:44:01;;;;;;;15.00;9.52;;;;;;;;;;5093680;28;20085;-64
2022/11/23 01:46:27;;;;;;;19.48;10.20;;;;;;;;;;5093422;28;20040;-64
2022/11/23 01:48:53;;;;;;;20.15;10.35;;;;;;;;;;5093960;28;20386;-64
2022/11/23 01:51:31;;;;;;;18.38;10.45;;;;;;;;;;5093712;28;20036;-64
2022/11/23 01:54:00;;;;;;;14.95;9.82;;;;;;;;;;5092021;28;20043;-64
2022/11/23 01:56:28;;;;;;;17.25;9.75;;;;;;;;;;5093756;28;20040;-64
2022/11/23 01:58:56;;;;;;;17.92;9.43;;;;;;;;;;5093323;28;20032;-64
2022/11/23 02:01:22;;;;;;;15.52;9.55;;;;;;;;;;5092784;28;20028;-64
2022/11/23 02:03:48;;;;;;;17.15;10.23;;;;;;;;;;5074164;28;20040;-64
2022/11/23 02:06:16;;;;;;;17.83;10.88;;;;;;;;;;5073113;28;20047;-64
2022/11/23 02:08:43;;;;;;;20.60;10.60;;;;;;;;;;5083287;28;20039;-64
2022/11/23 02:11:10;;;;;;;13.85;10.07;;;;;;;;;;5093331;28;20120;-64
2022/11/23 02:13:36;;;;;;;26.92;11.80;;;;;;;;;;5093527;28;20047;-64
2022/11/23 02:16:02;;;;;;;17.05;11.35;;;;;;;;;;5092760;28;20056;-64
2022/11/23 02:18:29;;;;;;;15.82;10.88;;;;;;;;;;5093399;28;20051;-63
2022/11/23 02:20:57;;;;;;;20.98;10.77;;;;;;;;;;5093117;28;20036;-63
2022/11/23 02:23:42;;;;;;;19.35;11.40;;;;;;;;;;5092759;28;20039;-63
2022/11/23 02:26:10;;;;;;;17.98;10.52;;;;;;;;;;5093134;28;20065;-63
2022/11/23 02:28:39;;;;;;;20.50;11.60;;;;;;;;;;5093220;28;20512;-63
2022/11/23 02:31:05;;;;;;;19.73;11.00;;;;;;;;;;5092704;28;20039;-63
2022/11/23 02:33:31;;;;;;;21.23;11.65;;;;;;;;;;5093116;28;20533;-63
2022/11/23 02:35:58;;;;;;;16.75;11.15;;;;;;;;;;5093064;28;20050;-63
2022/11/23 02:38:26;;;;;;;20.45;11.30;;;;;;;;;;5092532;28;20047;-63
2022/11/23 02:40:52;;;;;;;19.58;11.93;;;;;;;;;;5092707;28;20040;-63
2022/11/23 02:43:18;;;;;;;21.52;10.98;;;;;;;;;;5092238;28;20616;-63
2022/11/23 02:45:52;;;;;;;21.90;12.50;;;;;;;;;;5092058;28;20064;-64
2022/11/23 02:48:18;;;;;;;18.90;12.30;;;;;;;;;;5092443;28;20046;-63
2022/11/23 02:50:45;;;;;;;21.23;11.93;;;;;;;;;;5092622;28;20367;-63
2022/11/23 02:53:12;;;;;;;20.50;12.15;;;;;;;;;;5092284;28;20477;-63
2022/11/23 02:55:38;;;;;;;23.42;12.88;;;;;;;;;;5092632;28;20465;-63
2022/11/23 02:58:05;;;;;;;27.08;12.73;;;;;;;;;;5092602;28;20075;-64
2022/11/23 03:00:31;;;;;;;21.98;12.52;;;;;;;;;;5092004;28;20071;-63
2022/11/23 03:02:58;;;;;;;20.25;13.52;;;;;;;;;;5080111;28;20044;-63
2022/11/23 03:05:24;;;;;;;24.60;13.57;;;;;;;;;;5071710;28;20056;-63
2022/11/23 03:07:50;;;;;;;27.23;13.23;;;;;;;;;;5074712;28;20043;-63
2022/11/23 03:10:16;;;;;;;23.55;12.73;;;;;;;;;;5092252;28;20036;-64
2022/11/23 03:12:42;;;;;;;23.40;14.15;;;;;;;;;;5092343;28;20673;-64
2022/11/23 03:15:08;;;;;;;24.60;15.13;;;;;;;;;;5091773;28;20051;-64
2022/11/23 03:17:35;;;;;;;27.70;14.65;;;;;;;;;;5091729;28;20414;-64
2022/11/23 03:20:01;;;;;;;30.83;14.52;;;;;;;;;;5092027;28;20191;-64
2022/11/23 03:22:28;;;;;;;29.00;14.57;;;;;;;;;;5091532;28;20117;-64
2022/11/23 03:24:55;;;;;;;28.75;14.88;;;;;;;;;;5092182;28;20047;-64
2022/11/23 03:27:21;;;;;;;29.42;14.93;;;;;;;;;;5071789;28;20475;-64
2022/11/23 03:29:47;;;;;;;27.30;14.80;;;;;;;;;;5071496;28;20044;-64
2022/11/23 03:32:13;;;;;;;25.15;14.68;;;;;;;;;;5071652;28;20660;-64
2022/11/23 03:34:39;;;;;;;30.98;15.40;;;;;;;;;;5071450;28;20128;-64
2022/11/23 03:37:05;;;;;;;27.45;15.02;;;;;;;;;;5071466;28;20044;-64
2022/11/23 03:39:31;;;;;;;26.40;14.32;;;;;;;;;;5071683;28;20401;-64
2022/11/23 03:41:57;;;;;;;31.50;17.00;;;;;;;;;;5071552;28;20041;-64
2022/11/23 03:44:23;;;;;;;32.03;15.70;;;;;;;;;;5071314;28;20404;-64
2022/11/23 03:46:49;;;;;;;34.55;17.75;;;;;;;;;;5071471;28;20036;-64
2022/11/23 03:49:16;;;;;;;30.73;16.67;;;;;;;;;;5071325;28;20044;-64
2022/11/23 03:51:42;;;;;;;34.50;17.38;;;;;;;;;;5071110;28;20044;-64
2022/11/23 03:54:08;;;;;;;33.60;17.63;;;;;;;;;;5070844;28;20127;-64
2022/11/23 03:56:34;;;;;;;33.53;17.73;;;;;;;;;;5071510;28;20487;-64
2022/11/23 03:59:00;;;;;;;33.47;18.45;;;;;;;;;;5070716;28;20052;-64
2022/11/23 04:01:26;;;;;;;39.47;18.10;;;;;;;;;;5071336;28;20439;-63
2022/11/23 04:03:52;;;;;;;39.05;18.70;;;;;;;;;;5091070;28;20033;-63
2022/11/23 04:06:18;;;;;;;35.50;18.42;;;;;;;;;;5091023;28;20047;-63
2022/11/23 04:08:44;;;;;;;38.40;19.45;;;;;;;;;;5090092;28;20476;-63
2022/11/23 04:11:10;;;;;;;37.25;18.48;;;;;;;;;;5091576;28;20445;-63
2022/11/23 04:13:36;;;;;;;35.65;18.95;;;;;;;;;;5090944;28;20044;-63
2022/11/23 04:16:02;;;;;;;45.13;20.60;;;;;;;;;;5090195;28;20056;-63
2022/11/23 04:18:28;;;;;;;44.17;20.58;;;;;;;;;;5091532;28;20494;-63
2022/11/23 04:20:54;;;;;;;37.40;20.13;;;;;;;;;;5090836;28;20047;-63
2022/11/23 04:23:21;;;;;;;35.03;19.70;;;;;;;;;;5091482;28;20451;-63
2022/11/23 04:25:47;;;;;;;39.05;20.60;;;;;;;;;;5091353;28;20474;-63
2022/11/23 04:28:13;;;;;;;35.17;19.90;;;;;;;;;;5091015;28;20168;-64
2022/11/23 04:30:39;;;;;;;35.42;18.80;;;;;;;;;;5091315;28;20123;-63
2022/11/23 04:33:05;;;;;;;32.70;19.13;;;;;;;;;;5091111;28;20105;-63
2022/11/23 04:35:31;;;;;;;41.97;20.48;;;;;;;;;;5091043;28;20044;-63
2022/11/23 04:37:57;;;;;;;41.35;20.45;;;;;;;;;;5091372;28;20108;-63
2022/11/23 04:40:23;;;;;;;35.35;20.63;;;;;;;;;;5089750;28;20083;-63
2022/11/23 04:42:49;;;;;;;35.53;19.70;;;;;;;;;;5090550;28;20044;-63
2022/11/23 04:45:15;;;;;;;40.10;20.92;;;;;;;;;;5091289;28;20044;-63
2022/11/23 04:47:41;;;;;;;41.78;20.48;;;;;;;;;;5091173;28;20440;-63
2022/11/23 04:50:07;;;;;;;37.75;20.33;;;;;;;;;;5090585;28;20048;-63
2022/11/23 04:52:33;;;;;;;37.78;20.33;;;;;;;;;;5091226;28;20040;-63
2022/11/23 04:54:59;;;;;;;40.55;20.58;;;;;;;;;;5090869;28;20040;-63
2022/11/23 04:57:25;;;;;;;41.03;20.75;;;;;;;;;;5090406;28;20074;-64
2022/11/23 04:59:51;;;;;;;33.20;18.88;;;;;;;;;;5089721;28;20044;-64
2022/11/23 05:02:17;;;;;;;36.33;19.83;;;;;;;;;;5084574;28;20036;-64
2022/11/23 05:04:43;;;;;;;40.88;19.02;;;;;;;;;;5070571;28;20041;-64
2022/11/23 05:07:10;;;;;;;41.97;19.50;;;;;;;;;;5074022;28;20072;-64
2022/11/23 05:09:36;;;;;;;36.90;19.63;;;;;;;;;;5092234;28;20160;-64
2022/11/23 05:12:02;;;;;;;31.60;18.70;;;;;;;;;;5093918;28;20451;-64
2022/11/23 05:14:28;;;;;;;31.60;18.83;;;;;;;;;;5094218;28;20432;-64
2022/11/23 05:16:54;;;;;;;35.83;18.77;;;;;;;;;;5094232;28;20068;-64
2022/11/23 05:19:20;;;;;;;34.67;18.20;;;;;;;;;;5093949;28;20051;-64
2022/11/23 05:21:46;;;;;;;31.60;16.38;;;;;;;;;;5094324;28;20119;-64
2022/11/23 05:24:12;;;;;;;31.73;17.35;;;;;;;;;;5094423;28;20273;-64
2022/11/23 05:26:38;;;;;;;35.50;17.23;;;;;;;;;;5093760;28;20048;-64
2022/11/23 05:29:04;;;;;;;27.23;16.42;;;;;;;;;;5094103;28;20045;-64
2022/11/23 05:31:30;;;;;;;38.20;16.88;;;;;;;;;;5094372;28;20478;-64
2022/11/23 05:33:56;;;;;;;32.47;15.50;;;;;;;;;;5094091;28;20040;-64
2022/11/23 05:36:22;;;;;;;35.95;17.13;;;;;;;;;;5093685;28;20032;-64
2022/11/23 05:38:48;;;;;;;28.15;15.48;;;;;;;;;;5094113;28;20044;-64
2022/11/23 05:41:14;;;;;;;26.52;14.63;;;;;;;;;;5093660;28;20047;-64
2022/11/23 05:43:40;;;;;;;29.50;15.30;;;;;;;;;;5093649;28;20043;-64
2022/11/23 05:46:06;;;;;;;26.33;13.75;;;;;;;;;;5093534;28;20040;-64
2022/11/23 05:48:32;;;;;;;30.10;14.23;;;;;;;;;;5093487;28;20046;-64
2022/11/23 05:50:58;;;;;;;26.50;13.20;;;;;;;;;;5093434;28;20044;-64
2022/11/23 05:53:24;;;;;;;26.58;13.40;;;;;;;;;;5093861;28;20055;-64
2022/11/23 05:55:51;;;;;;;22.15;12.70;;;;;;;;;;5093901;28;20035;-64
2022/11/23 05:58:16;;;;;;;22.77;12.38;;;;;;;;;;5093432;28;20089;-64
2022/11/23 06:00:43;;;;;;;26.30;12.32;;;;;;;;;;5093599;28;20726;-64
2022/11/23 06:03:09;;;;;;;26.70;12.73;;;;;;;;;;5079833;28;20033;-64
2022/11/23 06:05:35;;;;;;;19.13;11.20;;;;;;;;;;5072793;28;20557;-64
2022/11/23 06:08:01;;;;;;;30.30;12.40;;;;;;;;;;5077848;28;20039;-64
2022/11/23 06:10:27;;;;;;;25.23;12.30;;;;;;;;;;5087690;28;20039;-64
2022/11/23 06:12:53;;;;;;;21.02;10.85;;;;;;;;;;5092709;28;20051;-64
2022/11/23 06:15:19;;;;;;;26.00;11.27;;;;;;;;;;5092957;28;20040;-63
2022/11/23 06:17:45;;;;;;;23.90;12.00;;;;;;;;;;5091631;28;20157;-63
2022/11/23 06:20:11;;;;;;;21.67;11.30;;;;;;;;;;5092447;28;20046;-63
2022/11/23 06:22:37;;;;;;;22.58;10.30;;;;;;;;;;5091147;28;20051;-63
2022/11/23 06:25:03;;;;;;;20.55;10.35;;;;;;;;;;5093153;28;20040;-63
2022/11/23 06:27:29;;;;;;;26.55;11.07;;;;;;;;;;5092504;28;20032;-63
2022/11/23 06:29:55;;;;;;;22.10;11.25;;;;;;;;;;5091805;28;20032;-64
2022/11/23 06:32:21;;;;;;;20.40;10.32;;;;;;;;;;5092607;28;20032;-63
2022/11/23 06:34:47;;;;;;;20.85;10.32;;;;;;;;;;5092355;28;20048;-64
2022/11/23 06:37:14;;;;;;;19.27;10.50;;;;;;;;;;5092455;28;20089;-64
2022/11/23 06:39:40;;;;;;;20.05;10.10;;;;;;;;;;5092583;28;20066;-64
2022/11/23 06:42:06;;;;;;;19.27;10.35;;;;;;;;;;5092049;28;20062;-64
2022/11/23 06:44:32;;;;;;;17.13;9.57;;;;;;;;;;5092295;28;20048;-63
2022/11/23 06:46:58;;;;;;;19.63;8.95;;;;;;;;;;5092512;28;20053;-63
2022/11/23 06:49:25;;;;;;;16.90;9.70;;;;;;;;;;5092020;28;20083;-63
2022/11/23 06:51:51;;;;;;;17.67;9.70;;;;;;;;;;5092414;28;20040;-63
2022/11/23 06:54:17;;;;;;;17.10;8.55;;;;;;;;;;5091615;28;20039;-63
2022/11/23 06:56:43;;;;;;;16.73;8.45;;;;;;;;;;5075660;28;20074;-63
2022/11/23 06:59:09;;;;;;;17.08;8.48;;;;;;;;;;5092371;28;20047;-63
2022/11/23 07:01:35;;;;;;;20.35;8.00;;;;;;;;;;5092014;28;20040;-63
2022/11/23 07:04:01;;;;;;;15.13;7.85;;;;;;;;;;5091683;28;20047;-64
2022/11/23 07:06:27;;;;;;;20.23;8.27;;;;;;;;;;5091888;28;20044;-63
2022/11/23 07:08:54;;;;;;;19.08;7.55;;;;;;;;;;5092093;28;20039;-63
2022/11/23 07:11:20;;;;;;;15.82;7.45;;;;;;;;;;5091442;28;20042;-63
2022/11/23 07:13:46;;;;;;;17.02;7.35;;;;;;;;;;5091869;28;20036;-63
2022/11/23 07:16:13;;;;;;;18.23;7.28;;;;;;;;;;5091951;28;20120;-64
2022/11/23 07:18:39;;;;;;;20.40;7.20;;;;;;;;;;5091436;28;20093;-64
2022/11/23 07:21:05;;;;;;;19.70;7.10;;;;;;;;;;5091644;28;20119;-63
2022/11/23 07:23:32;;;;;;;17.30;6.90;;;;;;;;;;5091767;28;20036;-63
2022/11/23 07:25:58;;;;;;;17.38;6.43;;;;;;;;;;5091394;28;20040;-63
2022/11/23 07:28:24;;;;;;;12.95;5.95;;;;;;;;;;5090464;28;20046;-64
2022/11/23 07:30:53;;;;;;;18.38;6.85;;;;;;;;;;5090962;28;20445;-63
2022/11/23 07:33:19;;;;;;;17.15;6.65;;;;;;;;;;5088302;28;20097;-63
2022/11/23 07:35:46;;;;;;;18.17;7.20;;;;;;;;;;5081558;28;20449;-63
2022/11/23 07:38:12;;;;;;;18.58;7.18;;;;;;;;;;5082080;28;20306;-66
2022/11/23 07:40:38;;;;;;;14.30;6.18;;;;;;;;;;5085540;28;20048;-66
2022/11/23 07:43:05;;;;;;;18.88;7.22;;;;;;;;;;5090921;28;20543;-66
2022/11/23 07:45:32;;;;;;;19.40;7.15;;;;;;;;;;5089847;28;20093;-67
2022/11/23 07:48:02;;;;;;;21.13;6.35;;;;;;;;;;5090338;28;20048;-66
2022/11/23 07:50:28;;;;;;;18.40;6.65;;;;;;;;;;5085940;28;20055;-66
2022/11/23 07:52:54;;;;;;;17.63;6.47;;;;;;;;;;5089610;28;20085;-65
2022/11/23 07:55:20;;;;;;;21.08;6.30;;;;;;;;;;5089573;28;20458;-66
2022/11/23 07:57:46;;;;;;;19.52;6.82;;;;;;;;;;5088368;28;20071;-66
2022/11/23 08:00:13;;;;;;;16.52;5.97;;;;;;;;;;5089941;28;20197;-66
2022/11/23 08:02:39;;;;;;;20.27;7.15;;;;;;;;;;5088972;28;20047;-66
2022/11/23 08:05:05;;;;;;;15.60;6.75;;;;;;;;;;5079807;28;20035;-66
2022/11/23 08:07:31;;;;;;;17.75;6.28;;;;;;;;;;5085668;28;20036;-66
2022/11/23 08:09:57;;;;;;;12.95;5.85;;;;;;;;;;5086520;28;20482;-67
2022/11/23 08:12:24;;;;;;;21.17;6.30;;;;;;;;;;5076614;28;20102;-67
2022/11/23 08:14:50;;;;;;;15.52;6.00;;;;;;;;;;5079987;28;20089;-67
2022/11/23 08:17:16;;;;;;;16.90;6.47;;;;;;;;;;5084418;28;20060;-67
2022/11/23 08:19:42;;;;;;;19.00;6.40;;;;;;;;;;5084396;28;20090;-66
2022/11/23 08:22:08;;;;;;;19.75;6.57;;;;;;;;;;5087772;28;20040;-67
2022/11/23 08:24:34;;;;;;;19.88;6.47;;;;;;;;;;5086670;28;20029;-67
2022/11/23 08:27:00;;;;;;;24.58;6.82;;;;;;;;;;5084030;28;20067;-67
2022/11/23 08:29:26;;;;;;;19.42;6.45;;;;;;;;;;5088093;28;20040;-66
2022/11/23 08:31:52;;;;;;;20.25;6.90;;;;;;;;;;5087152;28;20151;-67
2022/11/23 08:34:19;;;;;;;19.58;6.88;;;;;;;;;;5078519;28;20134;-67
2022/11/23 08:36:45;;;;;;;17.45;5.75;;;;;;;;;;5072241;28;20048;-68
2022/11/23 08:39:13;;;;;;;17.80;6.63;;;;;;;;;;5079948;28;20050;-66
2022/11/23 08:41:39;;;;;;;17.70;5.70;;;;;;;;;;5086878;28;20036;-67
2022/11/23 08:44:08;;;;;;;18.83;6.15;;;;;;;;;;5083272;28;20059;-67
2022/11/23 08:46:34;;;;;;;18.00;6.03;;;;;;;;;;5081102;28;20040;-67
2022/11/23 08:49:00;;;;;;;17.45;6.22;;;;;;;;;;5084016;28;20039;-67
2022/11/23 08:51:26;;;;;;;14.55;6.18;;;;;;;;;;5084391;28;20094;-66
2022/11/23 08:53:52;;;;;;;14.07;6.00;;;;;;;;;;5085124;28;20036;-64
2022/11/23 08:56:18;;;;;;;20.88;6.47;;;;;;;;;;5073889;28;20146;-64
2022/11/23 08:58:45;;;;;;;14.60;5.78;;;;;;;;;;5087506;28;20040;-64
2022/11/23 09:01:12;;;;;;;14.60;6.13;;;;;;;;;;5084606;28;20419;-64
2022/11/23 09:03:39;;;;;;;17.90;5.88;;;;;;;;;;5086222;28;20040;-64
2022/11/23 09:06:05;;;;;;;16.90;6.05;;;;;;;;;;5085270;28;20127;-64
2022/11/23 09:08:31;;;;;;;25.15;6.53;;;;;;;;;;5091238;28;20063;-64
2022/11/23 09:11:01;;;;;;;19.33;5.70;;;;;;;;;;5089216;28;20048;-64
2022/11/23 09:13:27;;;;;;;16.45;5.30;;;;;;;;;;5084404;28;20074;-64
2022/11/23 09:15:56;;;;;;;14.40;5.35;;;;;;;;;;5089536;28;20064;-64
2022/11/23 09:18:23;;;;;;;16.73;5.32;;;;;;;;;;5072360;28;20082;-64
2022/11/23 09:20:49;;;;;;;17.92;6.03;;;;;;;;;;5079092;28;20047;-64
2022/11/23 09:23:15;;;;;;;16.40;5.72;;;;;;;;;;5081095;28;20097;-64
2022/11/23 09:25:42;;;;;;;14.30;5.18;;;;;;;;;;5088443;28;20036;-65
2022/11/23 09:28:08;;;;;;;20.27;5.57;;;;;;;;;;5088974;28;20399;-65
2022/11/23 09:30:34;;;;;;;22.85;5.25;;;;;;;;;;5088176;28;20040;-65
2022/11/23 09:33:00;;;;;;;19.67;5.57;;;;;;;;;;5088497;28;20054;-65
2022/11/23 09:35:26;;;;;;;17.98;6.45;;;;;;;;;;5083717;28;20040;-64
2022/11/23 09:37:55;;;;;;;16.65;4.82;;;;;;;;;;5092624;28;20690;-65
2022/11/23 09:40:21;;;;;;;17.98;6.10;;;;;;;;;;5086961;28;20048;-65
2022/11/23 09:43:02;;;;;;;21.83;4.68;;;;;;;;;;5088119;28;20103;-65
2022/11/23 09:45:34;;;;;;;18.25;4.97;;;;;;;;;;5089153;28;20147;-65
2022/11/23 09:48:11;;;;;;;16.35;4.80;;;;;;;;;;5090597;28;20039;-65
2022/11/23 09:50:47;;;;;;;14.82;4.55;;;;;;;;;;5091527;28;20051;-64
2022/11/23 09:53:22;;;;;;;16.20;4.75;;;;;;;;;;5084885;28;20043;-64
2022/11/23 09:55:50;;;;;;;25.52;5.85;;;;;;;;;;5091390;28;20048;-64
2022/11/23 09:58:17;;;;;;;19.65;4.57;;;;;;;;;;5089260;28;20048;-64
2022/11/23 10:01:02;;;;;;;16.98;4.75;;;;;;;;;;5089482;28;20584;-64
2022/11/23 10:03:30;;;;;;;15.32;4.32;;;;;;;;;;5083536;28;20050;-64
2022/11/23 10:06:00;;;;;;;19.13;4.47;;;;;;;;;;5082017;28;20386;-64
2022/11/23 10:08:32;;;;;;;21.05;4.85;;;;;;;;;;5090771;28;20047;-64
2022/11/23 10:11:07;;;;;;;13.23;3.80;;;;;;;;;;5090197;28;20047;-64
2022/11/23 10:13:42;;;;;;;17.40;4.75;;;;;;;;;;5086072;28;20047;-64
2022/11/23 10:16:08;;;;;;;10.48;4.20;;;;;;;;;;5084976;28;20044;-64
2022/11/23 10:18:44;;;;;;;15.73;4.13;;;;;;;;;;5091028;28;20109;-64
2022/11/23 10:21:28;;;;;;;16.80;4.13;;;;;;;;;;5089875;28;20083;-64
2022/11/23 10:24:18;;;;;;;12.65;3.35;;;;;;;;;;5083499;28;20040;-64
2022/11/23 10:26:44;;;;;;;15.23;4.10;;;;;;;;;;5088517;28;20064;-64
2022/11/23 10:29:16;;;;;;;17.05;3.72;;;;;;;;;;5078442;28;20466;-64
2022/11/23 10:31:45;;;;;;;16.45;4.00;;;;;;;;;;5086107;28;20874;-64
2022/11/23 10:34:14;;;;;;;20.48;3.45;;;;;;;;;;5086807;28;20050;-64
2022/11/23 10:36:40;;;;;;;10.82;3.85;;;;;;;;;;5089597;28;20036;-64
2022/11/23 10:39:16;;;;;;;17.65;3.70;;;;;;;;;;5089626;28;20089;-64
2022/11/23 10:41:44;;;;;;;16.00;3.90;;;;;;;;;;5073239;28;20730;-65
2022/11/23 10:44:29;;;;;;;14.57;3.38;;;;;;;;;;5084550;28;20048;-65
2022/11/23 10:46:55;;;;;;;10.23;3.20;;;;;;;;;;5085506;28;20036;-64
2022/11/23 10:49:29;;;;;;;14.38;3.28;;;;;;;;;;5089637;28;20043;-64
2022/11/23 10:52:05;;;;;;;17.73;3.85;;;;;;;;;;5089097;28;20387;-65
2022/11/23 10:54:31;;;;;;;18.55;3.42;;;;;;;;;;5086658;28;20128;-65
2022/11/23 10:56:58;;;;;;;13.73;3.25;;;;;;;;;;5088224;28;20085;-64
2022/11/23 10:59:35;;;;;;;17.65;3.22;;;;;;;;;;5083352;28;20484;-63
2022/11/23 11:02:16;;;;;;;17.00;3.55;;;;;;;;;;5088976;28;20032;-63
2022/11/23 11:04:43;;;;;;;16.10;3.13;;;;;;;;;;5084379;28;20048;-63
2022/11/23 11:07:15;;;;;;;16.13;3.20;;;;;;;;;;5087266;28;20147;-64
2022/11/23 11:09:41;;;;;;;18.98;4.03;;;;;;;;;;5080779;28;20044;-64
2022/11/23 11:12:16;;;;;;;20.35;3.40;;;;;;;;;;5088041;28;20043;-63
2022/11/23 11:14:54;;;;;;;16.45;3.33;;;;;;;;;;5084072;28;20047;-64
2022/11/23 11:17:27;;;;;;;13.18;3.05;;;;;;;;;;5077605;28;20073;-65
2022/11/23 11:19:54;;;;;;;14.90;2.97;;;;;;;;;;5074907;28;20059;-65
2022/11/23 11:22:28;;;;;;;15.27;3.22;;;;;;;;;;5080004;28;20043;-65
2022/11/23 11:24:55;;;;;;;16.60;3.85;;;;;;;;;;5071040;28;20040;-63
2022/11/23 11:27:22;;;;;;;16.48;3.25;;;;;;;;;;5086334;28;20048;-65
2022/11/23 11:29:50;;;;;;;16.63;3.42;;;;;;;;;;5076642;28;20050;-63
2022/11/23 11:32:16;;;;;;;15.02;2.95;;;;;;;;;;5088524;28;20042;-63
2022/11/23 11:34:50;;;;;;;16.65;3.55;;;;;;;;;;5083849;28;20113;-64
2022/11/23 11:37:16;;;;;;;15.43;3.08;;;;;;;;;;5087133;28;20044;-63
2022/11/23 11:39:47;;;;;;;17.70;2.95;;;;;;;;;;5086060;28;20210;-63
2022/11/23 11:42:34;;;;;;;15.10;2.83;;;;;;;;;;5083141;28;20040;-63
2022/11/23 11:45:01;;;;;;;16.88;2.78;;;;;;;;;;5072028;28;20063;-63
2022/11/23 11:47:36;;;;;;;20.42;3.55;;;;;;;;;;5081752;28;20029;-63
2022/11/23 11:50:05;;;;;;;11.30;2.75;;;;;;;;;;5072356;28;20040;-63
2022/11/23 11:52:36;;;;;;;10.45;2.97;;;;;;;;;;5082949;28;20070;-64
2022/11/23 11:55:11;;;;;;;17.27;4.18;;;;;;;;;;5088602;28;20048;-63
2022/11/23 11:57:57;;;;;;;14.20;3.45;;;;;;;;;;5075636;28;20054;-63
2022/11/23 12:00:23;;;;;;;14.90;2.75;;;;;;;;;;5084146;28;20058;-63
2022/11/23 12:03:08;;;;;;;13.18;2.70;;;;;;;;;;5083649;28;20370;-63
2022/11/23 12:05:41;;;;;;;13.30;2.17;;;;;;;;;;5088910;28;20047;-63
2022/11/23 12:08:16;;;;;;;13.25;2.40;;;;;;;;;;5074291;28;20055;-64
2022/11/23 12:10:42;;;;;;;18.85;3.10;;;;;;;;;;5082368;28;20040;-64
2022/11/23 12:13:12;;;;;;;11.82;3.08;;;;;;;;;;5074069;28;20370;-64
2022/11/23 12:15:42;;;;;;;9.75;2.15;;;;;;;;;;5088823;28;20732;-64
2022/11/23 12:18:15;;;;;;;14.60;2.40;;;;;;;;;;5091892;28;20050;-64
2022/11/23 12:20:47;;;;;;;12.80;2.60;;;;;;;;;;5092928;28;20044;-64
2022/11/23 12:23:32;;;;;;;14.70;2.42;;;;;;;;;;5085038;28;20051;-64
2022/11/23 12:26:01;;;;;;;10.93;2.58;;;;;;;;;;5089981;28;20086;-64
2022/11/23 12:28:36;;;;;;;11.95;2.63;;;;;;;;;;5094186;28;20126;-63
2022/11/23 12:31:13;;;;;;;17.77;2.83;;;;;;;;;;5079780;28;20060;-64
2022/11/23 12:33:55;;;;;;;11.05;1.98;;;;;;;;;;5091750;28;20063;-64
2022/11/23 12:36:36;;;;;;;12.27;2.67;;;;;;;;;;5093561;28;20043;-63
2022/11/23 12:39:06;;;;;;;11.98;2.08;;;;;;;;;;5088171;28;20040;-64
2022/11/23 12:41:35;;;;;;;13.40;2.28;;;;;;;;;;5093860;28;20444;-64
2022/11/23 12:44:01;;;;;;;13.65;2.63;;;;;;;;;;5076654;28;20060;-63
2022/11/23 12:46:43;;;;;;;8.75;2.00;;;;;;;;;;5088906;28;20043;-64
2022/11/23 12:49:09;;;;;;;12.13;2.20;;;;;;;;;;5085616;28;20036;-64
2022/11/23 12:51:53;;;;;;;10.68;2.15;;;;;;;;;;5092995;28;20128;-63
2022/11/23 12:54:35;;;;;;;16.65;2.63;;;;;;;;;;5085112;28;20060;-64
2022/11/23 12:57:04;;;;;;;16.33;2.67;;;;;;;;;;5082505;28;20117;-63
2022/11/23 12:59:39;;;;;;;13.65;2.15;;;;;;;;;;5082611;28;20049;-63
2022/11/23 13:02:09;;;;;;;10.30;2.38;;;;;;;;;;5081932;28;20078;-63
2022/11/23 13:04:35;;;;;;;11.75;2.05;;;;;;;;;;5078283;28;20032;-63
2022/11/23 13:07:20;;;;;;;9.30;2.28;;;;;;;;;;5083917;28;20093;-63
2022/11/23 13:09:46;;;;;;;8.50;1.67;;;;;;;;;;5085148;28;20089;-63
2022/11/23 13:12:30;;;;;;;8.77;1.95;;;;;;;;;;5083757;28;20032;-63
2022/11/23 13:15:05;;;;;;;8.25;1.83;;;;;;;;;;5082530;28;20036;-64
2022/11/23 13:17:47;;;;;;;9.45;2.28;;;;;;;;;;5081867;28;20079;-64
2022/11/23 13:20:21;;;;;;;9.48;1.98;;;;;;;;;;5085453;28;20052;-64
2022/11/23 13:22:47;;;;;;;9.45;2.65;;;;;;;;;;5082329;28;20123;-64
2022/11/23 13:25:19;;;;;;;9.90;2.35;;;;;;;;;;5084139;28;20036;-64
2022/11/23 13:27:48;;;;;;;9.48;1.58;;;;;;;;;;5086759;28;20032;-64
2022/11/23 13:30:26;;;;;;;9.43;2.03;;;;;;;;;;5080356;28;20487;-64
2022/11/23 13:32:53;;;;;;;11.75;2.05;;;;;;;;;;5082123;28;20043;-64
2022/11/23 13:35:39;;;;;;;9.45;1.92;;;;;;;;;;5078523;28;20737;-64
2022/11/23 13:38:14;;;;;;;10.23;1.92;;;;;;;;;;5080586;28;20360;-64
2022/11/23 13:40:42;;;;;;;8.70;2.10;;;;;;;;;;5083962;28;20038;-64
2022/11/23 13:43:14;;;;;;;8.30;1.50;;;;;;;;;;5083406;28;20240;-64
2022/11/23 13:45:40;;;;;;;;;;;;;;;;;;5084116;28;20059;-64
2022/11/23 13:48:09;;;;;;;10.32;1.65;;;;;;;;;;5091009;28;19916;-64
2022/11/23 13:50:37;;;;;;;8.38;1.85;;;;;;;;;;5088865;28;20442;-64
2022/11/23 13:53:03;;;;;;;8.20;2.17;;;;;;;;;;5081250;28;20094;-64
2022/11/23 13:55:37;;;;;;;10.75;1.90;;;;;;;;;;5081165;28;20036;-64
2022/11/23 13:58:32;;;;;;;8.43;1.80;;;;;;;;;;5076180;28;20042;-64
2022/11/23 14:00:59;;;;;;;6.60;1.77;;;;;;;;;;5086507;28;20169;-64
2022/11/23 14:03:44;;;;;;;9.60;1.45;;;;;;;;;;5085044;28;20029;-64
2022/11/23 14:06:20;;;;;;;6.95;1.40;;;;;;;;;;5081848;28;20032;-64
2022/11/23 14:08:47;;;;;;;9.38;1.98;;;;;;;;;;5077438;28;20044;-65
2022/11/23 14:11:15;;;;;;;7.45;1.75;;;;;;;;;;5089386;28;20043;-63
2022/11/23 14:13:47;;;;;;;6.13;1.83;;;;;;;;;;5080152;28;20130;-63
2022/11/23 14:16:16;;;;;;;10.73;2.25;;;;;;;;;;5072163;28;20052;-63
2022/11/23 14:18:49;;;;;;;8.88;2.10;;;;;;;;;;5085478;28;20124;-63
2022/11/23 14:21:33;;;;;;;9.80;2.05;;;;;;;;;;5080754;28;20051;-63
2022/11/23 14:24:05;;;;;;;9.95;2.17;;;;;;;;;;5084148;28;20082;-63
2022/11/23 14:26:34;;;;;;;8.23;2.10;;;;;;;;;;5087855;28;20040;-64
2022/11/23 14:29:20;;;;;;;6.28;2.17;;;;;;;;;;5085430;28;20393;-63
2022/11/23 14:32:15;;;;;;;9.68;1.80;;;;;;;;;;5084549;28;20645;-63
2022/11/23 14:35:04;;;;;;;9.35;1.80;;;;;;;;;;5081494;28;20047;-63